createdAt,value
2023-05-10T00:00:46.324Z,41.78
2023-05-10T00:03:12.885Z,41.48
2023-05-10T00:05:39.493Z,41.55
2023-05-10T00:08:06.147Z,42.19
2023-05-10T00:10:32.587Z,42.33
2023-05-10T00:12:59.212Z,42.38
2023-05-10T00:15:25.791Z,42.42
2023-05-10T00:17:52.281Z,42.29
2023-05-10T00:20:19.171Z,43.04
2023-05-10T00:22:45.913Z,43.57
2023-05-10T00:25:12.706Z,43.17
2023-05-10T00:27:41.661Z,43.42
2023-05-10T00:30:10.708Z,43.44
2023-05-10T00:32:37.358Z,43.34
2023-05-10T00:35:03.956Z,43.87
2023-05-10T00:37:30.838Z,43.65
2023-05-10T00:39:57.227Z,43.72
2023-05-10T00:42:23.750Z,44.00
2023-05-10T00:44:50.142Z,44.44
2023-05-10T00:47:17.673Z,44.51
2023-05-10T00:49:44.701Z,44.65
2023-05-10T00:52:11.204Z,44.41
2023-05-10T00:54:37.956Z,44.90
2023-05-10T00:57:04.732Z,45.01
2023-05-10T00:59:31.637Z,45.00
2023-05-10T01:01:58.889Z,45.09
2023-05-10T01:04:26.539Z,45.36
2023-05-10T01:06:54.492Z,45.65
2023-05-10T01:09:22.602Z,45.66
2023-05-10T01:11:49.835Z,46.03
2023-05-10T01:14:19.719Z,45.89
2023-05-10T01:16:47.919Z,46.15
2023-05-10T01:19:23.935Z,46.12
2023-05-10T01:22:19.487Z,45.69
2023-05-10T01:25:08.942Z,46.25
2023-05-10T01:27:35.351Z,46.60
2023-05-10T01:30:32.312Z,46.42
2023-05-10T01:33:02.615Z,47.26
2023-05-10T01:35:40.931Z,47.22
2023-05-10T01:38:26.195Z,47.80
2023-05-10T01:41:01.874Z,47.19
2023-05-10T01:43:32.763Z,48.06
2023-05-10T01:46:11.325Z,48.10
2023-05-10T01:48:48.080Z,48.06
2023-05-10T01:51:20.621Z,48.21
2023-05-10T01:53:49.656Z,48.00
2023-05-10T01:56:17.023Z,48.47
2023-05-10T01:58:48.250Z,48.42
2023-05-10T02:01:15.858Z,48.41
2023-05-10T02:03:44.706Z,48.00
2023-05-10T02:06:13.784Z,48.58
2023-05-10T02:08:42.095Z,49.42
2023-05-10T02:11:12.164Z,48.88
2023-05-10T02:13:40.348Z,48.93
2023-05-10T02:16:08.260Z,49.28
2023-05-10T02:18:36.910Z,49.43
2023-05-10T02:21:04.255Z,49.25
2023-05-10T02:23:32.153Z,49.09
2023-05-10T02:25:59.909Z,49.21
2023-05-10T02:28:27.484Z,49.67
2023-05-10T02:30:55.355Z,49.83
2023-05-10T02:33:23.397Z,49.96
2023-05-10T02:35:51.860Z,50.27
2023-05-10T02:38:21.147Z,50.00
2023-05-10T02:40:48.574Z,50.02
2023-05-10T02:43:18.020Z,50.09
2023-05-10T02:45:47.891Z,50.06
2023-05-10T02:48:14.570Z,50.15
2023-05-10T02:50:45.440Z,50.38
2023-05-10T02:53:16.028Z,50.14
2023-05-10T02:55:46.001Z,50.30
2023-05-10T02:58:12.500Z,50.64
2023-05-10T03:00:38.928Z,50.35
2023-05-10T03:03:05.419Z,50.45
2023-05-10T03:05:32.169Z,50.28
2023-05-10T03:07:58.690Z,50.50
2023-05-10T03:10:30.364Z,50.41
2023-05-10T03:13:08.673Z,50.77
2023-05-10T03:15:59.132Z,50.66
2023-05-10T03:18:40.754Z,50.66
2023-05-10T03:21:09.940Z,50.60
2023-05-10T03:23:48.785Z,50.66
2023-05-10T03:26:21.467Z,50.67
2023-05-10T03:28:49.309Z,50.68
2023-05-10T03:31:16.413Z,50.79
2023-05-10T03:33:50.476Z,50.92
2023-05-10T03:36:17.157Z,50.81
2023-05-10T03:38:43.655Z,50.64
2023-05-10T03:41:10.468Z,51.31
2023-05-10T03:43:37.543Z,50.79
2023-05-10T03:46:04.599Z,50.75
2023-05-10T03:48:31.664Z,50.65
2023-05-10T03:50:58.160Z,50.59
2023-05-10T03:53:25.105Z,50.66
2023-05-10T03:55:51.676Z,50.94
2023-05-10T03:58:18.107Z,51.04
2023-05-10T04:00:46.155Z,51.46
2023-05-10T04:03:13.877Z,50.98
2023-05-10T04:05:40.952Z,50.95
2023-05-10T04:08:07.493Z,51.20
2023-05-10T04:10:33.932Z,50.98
2023-05-10T04:13:00.766Z,51.42
2023-05-10T04:15:27.259Z,51.22
2023-05-10T04:17:54.597Z,51.30
2023-05-10T04:20:21.366Z,50.73
2023-05-10T04:22:47.855Z,50.80
2023-05-10T04:25:14.618Z,50.65
2023-05-10T04:27:41.069Z,50.74
2023-05-10T04:30:08.334Z,50.99
2023-05-10T04:32:34.813Z,51.01
2023-05-10T04:35:03.878Z,51.10
2023-05-10T04:37:30.389Z,50.82
2023-05-10T04:39:56.794Z,50.77
2023-05-10T04:42:23.225Z,50.67
2023-05-10T04:44:49.590Z,50.63
2023-05-10T04:47:17.194Z,50.97
2023-05-10T04:49:43.621Z,50.78
2023-05-10T04:52:10.019Z,50.56
2023-05-10T04:54:36.596Z,51.00
2023-05-10T04:57:03.143Z,50.87
2023-05-10T04:59:29.764Z,50.59
2023-05-10T05:01:56.176Z,50.98
2023-05-10T05:04:24.401Z,50.69
2023-05-10T05:06:53.671Z,50.40
2023-05-10T05:09:20.799Z,50.46
2023-05-10T05:11:47.252Z,50.56
2023-05-10T05:14:13.745Z,50.64
2023-05-10T05:16:40.445Z,50.81
2023-05-10T05:19:07.613Z,50.25
2023-05-10T05:21:34.258Z,50.76
2023-05-10T05:24:00.948Z,49.94
2023-05-10T05:26:27.628Z,49.77
2023-05-10T05:28:55.472Z,49.61
2023-05-10T05:31:22.211Z,50.13
2023-05-10T05:33:48.737Z,50.08
2023-05-10T05:36:15.262Z,50.39
2023-05-10T05:38:41.824Z,49.62
2023-05-10T05:41:08.270Z,49.10
2023-05-10T05:43:37.451Z,49.17
2023-05-10T05:46:04.939Z,48.57
2023-05-10T05:48:31.923Z,48.69
2023-05-10T05:50:58.803Z,48.75
2023-05-10T05:53:25.317Z,48.39
2023-05-10T05:55:56.252Z,48.83
2023-05-10T05:58:23.495Z,47.86
2023-05-10T06:00:53.602Z,47.63
2023-05-10T06:03:20.411Z,47.67
2023-05-10T06:05:47.422Z,48.20
2023-05-10T06:08:14.329Z,47.42
2023-05-10T06:10:40.723Z,46.77
2023-05-10T06:13:07.202Z,46.89
2023-05-10T06:15:33.703Z,47.28
2023-05-10T06:18:00.342Z,46.96
2023-05-10T06:20:26.959Z,46.38
2023-05-10T06:22:53.586Z,45.91
2023-05-10T06:25:20.054Z,46.18
2023-05-10T06:27:53.451Z,46.83
2023-05-10T06:30:21.146Z,46.12
2023-05-10T06:32:47.714Z,46.25
2023-05-10T06:35:14.696Z,46.50
2023-05-10T06:37:41.165Z,46.19
2023-05-10T06:40:08.487Z,46.34
2023-05-10T06:42:35.093Z,45.14
2023-05-10T06:45:01.635Z,44.98
2023-05-10T06:47:28.124Z,44.90
2023-05-10T06:49:54.668Z,45.41
2023-05-10T06:52:21.079Z,45.10
2023-05-10T06:54:47.568Z,45.04
2023-05-10T06:57:27.638Z,44.91
2023-05-10T06:59:57.612Z,45.13
2023-05-10T07:02:24.430Z,44.77
2023-05-10T07:04:52.720Z,43.80
2023-05-10T07:07:19.838Z,43.53
2023-05-10T07:09:46.686Z,43.87
2023-05-10T07:12:15.430Z,44.08
2023-05-10T07:14:43.265Z,43.60
2023-05-10T07:17:10.125Z,42.47
2023-05-10T07:19:36.914Z,41.51
2023-05-10T07:22:03.597Z,41.69
2023-05-10T07:24:30.810Z,41.77
2023-05-10T07:26:57.323Z,43.55
2023-05-10T07:29:23.774Z,41.07
2023-05-10T07:31:50.200Z,42.38
2023-05-10T07:34:16.853Z,42.71
2023-05-10T07:36:43.458Z,42.23
2023-05-10T07:39:09.967Z,42.53
2023-05-10T07:41:38.495Z,42.82
2023-05-10T07:44:05.420Z,43.34
2023-05-10T07:46:32.140Z,42.13
2023-05-10T07:48:58.572Z,42.23
2023-05-10T07:51:25.108Z,41.96
2023-05-10T07:53:51.566Z,42.15
2023-05-10T07:56:28.099Z,42.55
2023-05-10T07:58:55.521Z,42.01
2023-05-10T08:01:22.387Z,42.05
2023-05-10T08:03:49.797Z,41.98
2023-05-10T08:06:18.611Z,41.88
2023-05-10T08:08:50.091Z,42.71
2023-05-10T08:11:18.460Z,42.11
2023-05-10T08:13:45.841Z,42.56
2023-05-10T08:16:12.317Z,41.25
2023-05-10T08:18:39.539Z,41.95
2023-05-10T08:21:06.847Z,41.98
2023-05-10T08:23:33.873Z,40.71
2023-05-10T08:26:01.122Z,42.14
2023-05-10T08:28:28.063Z,40.99
2023-05-10T08:30:54.826Z,42.37
2023-05-10T08:33:21.400Z,42.27
2023-05-10T08:35:47.985Z,41.64
2023-05-10T08:38:16.384Z,41.74
2023-05-10T08:40:44.283Z,41.21
2023-05-10T08:43:12.947Z,41.73
2023-05-10T08:45:46.483Z,42.70
2023-05-10T08:48:12.933Z,42.05
2023-05-10T08:50:41.431Z,41.90
2023-05-10T08:53:12.002Z,43.09
2023-05-10T08:55:39.872Z,42.79
2023-05-10T08:58:07.427Z,43.56
2023-05-10T09:00:34.914Z,43.67
2023-05-10T09:03:02.579Z,43.68
2023-05-10T09:05:29.236Z,44.62
2023-05-10T09:07:55.788Z,44.27
2023-05-10T09:10:23.697Z,44.76
2023-05-10T09:12:51.691Z,44.76
2023-05-10T09:15:20.301Z,46.01
2023-05-10T09:17:47.210Z,45.52
2023-05-10T09:20:13.810Z,46.38
2023-05-10T09:22:41.065Z,45.41
2023-05-10T09:25:13.387Z,45.01
2023-05-10T09:27:40.972Z,45.72
2023-05-10T09:30:08.713Z,46.06
2023-05-10T09:32:39.325Z,46.65
2023-05-10T09:35:17.042Z,46.50
2023-05-10T09:37:46.904Z,47.16
2023-05-10T09:40:21.127Z,47.13
2023-05-10T09:43:03.791Z,47.32
2023-05-10T09:45:31.892Z,48.71
2023-05-10T09:48:00.006Z,48.91
2023-05-10T09:50:27.553Z,49.44
2023-05-10T09:52:58.743Z,50.44
2023-05-10T09:55:27.880Z,50.88
2023-05-10T09:58:02.229Z,51.20
2023-05-10T10:00:35.097Z,52.08
2023-05-10T10:03:02.995Z,52.64
2023-05-10T10:05:34.076Z,54.80
2023-05-10T10:08:02.265Z,55.04
2023-05-10T10:10:29.274Z,56.08
2023-05-10T10:12:56.577Z,57.51
2023-05-10T10:15:26.979Z,57.63
2023-05-10T10:17:54.367Z,58.60
2023-05-10T10:20:23.120Z,60.01
2023-05-10T10:22:49.800Z,62.57
2023-05-10T10:25:18.708Z,63.27
2023-05-10T10:27:54.690Z,63.80
2023-05-10T10:30:44.774Z,64.14
2023-05-10T10:33:30.791Z,65.61
2023-05-10T10:36:00.939Z,67.51
2023-05-10T10:38:37.898Z,66.73
2023-05-10T10:41:11.833Z,68.71
2023-05-10T10:43:38.396Z,69.68
2023-05-10T10:46:18.459Z,70.12
2023-05-10T10:48:50.707Z,71.06
2023-05-10T10:51:17.556Z,71.11
2023-05-10T10:53:44.414Z,71.87
2023-05-10T10:56:16.064Z,72.05
2023-05-10T10:58:49.728Z,72.43
2023-05-10T11:01:18.216Z,72.22
2023-05-10T11:04:04.966Z,71.77
2023-05-10T11:06:33.357Z,71.77
2023-05-10T11:09:00.669Z,71.66
2023-05-10T11:11:27.231Z,72.86
2023-05-10T11:13:53.736Z,73.31
2023-05-10T11:16:21.568Z,74.46
2023-05-10T11:19:14.889Z,73.15
2023-05-10T11:21:47.523Z,73.23
2023-05-10T11:24:28.193Z,73.36
2023-05-10T11:26:54.882Z,75.52
2023-05-10T11:29:21.467Z,73.32
2023-05-10T11:31:49.382Z,73.71
2023-05-10T11:34:34.306Z,73.78
2023-05-10T11:37:03.879Z,73.99
2023-05-10T11:39:32.509Z,74.79
2023-05-10T11:41:59.252Z,75.00
2023-05-10T11:44:31.949Z,75.91
2023-05-10T11:47:02.551Z,75.57
2023-05-10T11:49:29.217Z,75.04
2023-05-10T11:52:08.179Z,75.10
2023-05-10T11:54:36.072Z,75.67
2023-05-10T11:57:02.855Z,75.78
2023-05-10T11:59:29.357Z,76.22
2023-05-10T12:01:56.200Z,76.11
2023-05-10T12:04:22.957Z,76.63
2023-05-10T12:06:49.571Z,76.82
2023-05-10T12:09:17.632Z,76.96
2023-05-10T12:11:45.858Z,77.51
2023-05-10T12:14:12.484Z,77.08
2023-05-10T12:16:39.399Z,77.13
2023-05-10T12:19:09.144Z,77.79
2023-05-10T12:21:35.706Z,77.07
2023-05-10T12:24:06.134Z,78.32
2023-05-10T12:26:33.016Z,78.20
2023-05-10T12:29:20.988Z,78.58
2023-05-10T12:32:01.248Z,77.44
2023-05-10T12:34:39.813Z,75.56
2023-05-10T12:37:06.416Z,76.51
2023-05-10T12:39:45.836Z,77.13
2023-05-10T12:42:12.688Z,75.83
2023-05-10T12:44:39.982Z,76.77
2023-05-10T12:47:06.863Z,77.55
2023-05-10T12:49:33.380Z,76.45
2023-05-10T12:51:59.859Z,75.36
2023-05-10T12:54:26.723Z,76.64
2023-05-10T12:56:53.230Z,75.45
2023-05-10T12:59:19.636Z,75.69
2023-05-10T13:01:46.205Z,75.66
2023-05-10T13:04:12.744Z,75.13
2023-05-10T13:06:39.215Z,77.50
2023-05-10T13:09:05.681Z,77.31
2023-05-10T13:11:32.182Z,75.39
2023-05-10T13:13:58.923Z,73.47
2023-05-10T13:16:25.583Z,72.09
2023-05-10T13:18:55.455Z,70.60
2023-05-10T13:21:21.994Z,69.83
2023-05-10T13:23:48.483Z,69.90
2023-05-10T13:26:15.056Z,69.48
2023-05-10T13:28:41.585Z,68.43
2023-05-10T13:31:08.609Z,68.53
2023-05-10T13:33:35.038Z,68.69
2023-05-10T13:36:01.452Z,66.59
2023-05-10T13:38:27.844Z,67.51
2023-05-10T13:40:54.374Z,67.06
2023-05-10T13:43:20.864Z,66.32
2023-05-10T13:45:47.385Z,66.94
2023-05-10T13:48:13.795Z,66.21
2023-05-10T13:50:40.231Z,66.57
2023-05-10T13:53:06.657Z,67.65
2023-05-10T13:55:33.320Z,67.68
2023-05-10T13:57:59.840Z,67.88
2023-05-10T14:00:26.209Z,66.97
2023-05-10T14:02:52.660Z,66.13
2023-05-10T14:05:22.310Z,66.15
2023-05-10T14:07:52.270Z,65.51
2023-05-10T14:10:18.786Z,63.57
2023-05-10T14:12:45.246Z,61.91
2023-05-10T14:15:12.553Z,61.23
2023-05-10T14:17:39.090Z,61.03
2023-05-10T14:20:08.610Z,60.93
2023-05-10T14:22:35.409Z,60.71
2023-05-10T14:25:02.038Z,60.27
2023-05-10T14:27:28.530Z,61.57
2023-05-10T14:29:55.031Z,60.91
2023-05-10T14:32:21.534Z,62.34
2023-05-10T14:34:48.106Z,62.79
2023-05-10T14:37:14.919Z,63.32
2023-05-10T14:39:47.997Z,62.30
2023-05-10T14:42:14.365Z,62.35
2023-05-10T14:44:40.732Z,62.14
2023-05-10T14:47:07.779Z,61.13
2023-05-10T14:49:34.482Z,61.30
2023-05-10T14:52:01.219Z,62.29
2023-05-10T14:54:28.320Z,61.36
2023-05-10T14:56:54.801Z,61.15
2023-05-10T14:59:21.590Z,62.25
2023-05-10T15:01:48.548Z,60.91
2023-05-10T15:04:17.324Z,60.19
2023-05-10T15:06:44.243Z,60.12
2023-05-10T15:09:10.653Z,59.68
2023-05-10T15:11:37.235Z,58.62
2023-05-10T15:14:03.852Z,59.04
2023-05-10T15:16:30.781Z,58.83
2023-05-10T15:18:58.841Z,59.60
2023-05-10T15:21:25.351Z,59.49
2023-05-10T15:23:51.811Z,60.29
2023-05-10T15:26:18.271Z,58.83
2023-05-10T15:28:44.875Z,58.61
2023-05-10T15:31:11.946Z,59.67
2023-05-10T15:33:39.043Z,59.62
2023-05-10T15:36:05.765Z,59.63
2023-05-10T15:38:32.437Z,60.20
2023-05-10T15:40:59.250Z,60.33
2023-05-10T15:43:25.678Z,60.93
2023-05-10T15:45:52.211Z,59.80
2023-05-10T15:48:18.683Z,59.97
2023-05-10T15:50:45.209Z,60.84
2023-05-10T15:53:12.116Z,62.03
2023-05-10T15:55:38.649Z,62.21
2023-05-10T15:58:05.038Z,62.64
2023-05-10T16:00:31.415Z,65.60
2023-05-10T16:02:58.182Z,66.99
2023-05-10T16:05:24.728Z,68.23
2023-05-10T16:07:51.222Z,70.83
2023-05-10T16:10:17.655Z,72.03
2023-05-10T16:12:44.070Z,74.09
2023-05-10T16:15:10.809Z,74.34
2023-05-10T16:17:37.438Z,76.05
2023-05-10T16:20:05.220Z,77.79
2023-05-10T16:22:31.714Z,78.42
2023-05-10T16:24:58.876Z,79.37
2023-05-10T16:27:28.559Z,80.56
2023-05-10T16:29:54.948Z,81.44
2023-05-10T16:32:21.483Z,82.41
2023-05-10T16:34:47.936Z,83.54
2023-05-10T16:37:14.433Z,83.55
2023-05-10T16:39:40.927Z,83.72
2023-05-10T16:42:07.634Z,84.79
2023-05-10T16:44:34.211Z,84.17
2023-05-10T16:47:00.862Z,84.28
2023-05-10T16:49:27.337Z,84.48
2023-05-10T16:51:53.770Z,84.96
2023-05-10T16:54:21.797Z,83.79
2023-05-10T16:56:48.249Z,84.25
2023-05-10T16:59:14.711Z,84.32
2023-05-10T17:01:41.465Z,85.08
2023-05-10T17:04:08.104Z,85.25
2023-05-10T17:06:36.640Z,85.18
2023-05-10T17:09:03.930Z,83.84
2023-05-10T17:11:30.299Z,84.03
2023-05-10T17:13:57.342Z,83.65
2023-05-10T17:16:23.777Z,82.80
2023-05-10T17:18:50.332Z,83.03
2023-05-10T17:21:17.144Z,82.27
2023-05-10T17:23:43.773Z,82.18
2023-05-10T17:26:10.486Z,83.07
2023-05-10T17:28:36.903Z,82.94
2023-05-10T17:31:03.345Z,80.55
2023-05-10T17:33:29.787Z,79.70
2023-05-10T17:35:56.682Z,79.85
2023-05-10T17:38:23.067Z,80.71
2023-05-10T17:40:49.581Z,80.50
2023-05-10T17:43:16.139Z,81.56
2023-05-10T17:45:44.011Z,82.66
2023-05-10T17:48:11.297Z,83.82
2023-05-10T17:50:37.969Z,84.53
2023-05-10T17:53:04.347Z,84.91
2023-05-10T17:55:31.160Z,86.10
2023-05-10T17:58:02.321Z,86.02
2023-05-10T18:00:28.749Z,86.34
2023-05-10T18:02:55.278Z,87.10
2023-05-10T18:05:22.119Z,87.53
2023-05-10T18:07:48.948Z,87.68
2023-05-10T18:10:15.464Z,87.85
2023-05-10T18:12:41.943Z,87.46
2023-05-10T18:15:08.861Z,87.63
2023-05-10T18:17:35.379Z,86.87
2023-05-10T18:20:02.223Z,86.32
2023-05-10T18:22:28.692Z,86.19
2023-05-10T18:24:55.542Z,87.30
2023-05-10T18:27:22.328Z,87.90
2023-05-10T18:29:48.693Z,87.51
2023-05-10T18:32:15.425Z,88.07
2023-05-10T18:34:41.830Z,88.51
2023-05-10T18:37:09.538Z,88.53
2023-05-10T18:39:39.149Z,88.83
2023-05-10T18:42:06.061Z,88.45
2023-05-10T18:44:32.624Z,88.05
2023-05-10T18:46:59.331Z,88.77
2023-05-10T18:49:26.687Z,88.85
2023-05-10T18:51:53.448Z,89.31
2023-05-10T18:54:20.548Z,89.17
2023-05-10T18:56:47.262Z,89.06
2023-05-10T18:59:13.906Z,88.92
2023-05-10T19:01:41.534Z,88.80
2023-05-10T19:04:08.885Z,87.42
2023-05-10T19:06:36.119Z,87.58
2023-05-10T19:09:03.191Z,87.38
2023-05-10T19:11:32.138Z,87.76
2023-05-10T19:13:59.033Z,87.67
2023-05-10T19:16:28.663Z,87.99
2023-05-10T19:18:56.580Z,87.80
2023-05-10T19:21:23.086Z,87.98
2023-05-10T19:23:49.603Z,87.74
2023-05-10T19:26:16.083Z,87.63
2023-05-10T19:28:42.471Z,87.53
2023-05-10T19:31:08.948Z,87.36
2023-05-10T19:33:42.119Z,87.70
2023-05-10T19:36:09.238Z,86.90
2023-05-10T19:38:38.063Z,87.68
2023-05-10T19:41:04.696Z,86.97
2023-05-10T19:43:34.584Z,87.91
2023-05-10T19:46:02.053Z,87.82
2023-05-10T19:48:28.800Z,87.96
2023-05-10T19:51:01.474Z,88.94
2023-05-10T19:53:28.149Z,88.50
2023-05-10T19:55:54.948Z,88.65
2023-05-10T19:58:21.503Z,88.82
2023-05-10T20:00:48.028Z,88.75
2023-05-10T20:03:14.535Z,88.91
2023-05-10T20:05:41.067Z,88.82
2023-05-10T20:08:08.394Z,89.19
2023-05-10T20:10:34.820Z,89.20
2023-05-10T20:13:01.216Z,89.31
2023-05-10T20:15:29.384Z,89.33
2023-05-10T20:17:55.853Z,89.24
2023-05-10T20:20:22.679Z,89.33
2023-05-10T20:22:49.782Z,89.23
2023-05-10T20:25:17.959Z,89.63
2023-05-10T20:27:44.517Z,89.41
2023-05-10T20:30:11.404Z,89.50
2023-05-10T20:32:38.242Z,89.43
2023-05-10T20:35:05.854Z,89.15
2023-05-10T20:37:32.303Z,89.16
2023-05-10T20:39:58.797Z,89.54
2023-05-10T20:42:25.944Z,88.86
2023-05-10T20:44:52.696Z,88.71
2023-05-10T20:47:19.989Z,88.57
2023-05-10T20:49:46.607Z,88.32
2023-05-10T20:52:16.242Z,88.24
2023-05-10T20:54:43.047Z,87.93
2023-05-10T20:57:12.598Z,87.80
2023-05-10T20:59:39.630Z,87.93
2023-05-10T21:02:06.842Z,88.13
2023-05-10T21:04:33.673Z,88.08
2023-05-10T21:07:03.498Z,88.40
2023-05-10T21:09:30.147Z,88.79
2023-05-10T21:11:58.166Z,89.19
2023-05-10T21:14:25.095Z,89.31
2023-05-10T21:16:52.038Z,89.66
2023-05-10T21:19:19.206Z,89.96
2023-05-10T21:21:46.497Z,89.92
2023-05-10T21:24:13.992Z,90.14
2023-05-10T21:26:40.943Z,90.18
2023-05-10T21:29:07.846Z,90.37
2023-05-10T21:31:34.820Z,90.40
2023-05-10T21:34:01.631Z,90.70
2023-05-10T21:36:28.466Z,90.61
2023-05-10T21:38:55.044Z,89.86
2023-05-10T21:41:22.048Z,90.08
2023-05-10T21:43:48.939Z,90.19
2023-05-10T21:46:17.959Z,89.91
2023-05-10T21:48:45.195Z,89.94
2023-05-10T21:51:12.284Z,89.96
2023-05-10T21:53:39.223Z,89.95
2023-05-10T21:56:07.292Z,90.19
2023-05-10T21:58:34.130Z,90.40
2023-05-10T22:01:04.276Z,90.56
2023-05-10T22:03:31.725Z,90.53
2023-05-10T22:05:58.639Z,90.47
2023-05-10T22:08:25.741Z,90.55
2023-05-10T22:10:52.899Z,90.46
2023-05-10T22:13:19.548Z,90.48
2023-05-10T22:15:46.375Z,90.50
2023-05-10T22:18:13.323Z,90.27
2023-05-10T22:20:43.546Z,90.48
2023-05-10T22:23:10.549Z,89.71
2023-05-10T22:25:37.299Z,89.88
2023-05-10T22:28:04.765Z,90.52
2023-05-10T22:30:33.073Z,90.34
2023-05-10T22:33:00.827Z,90.48
2023-05-10T22:35:28.166Z,89.94
2023-05-10T22:37:54.574Z,89.52
2023-05-10T22:40:21.507Z,89.83
2023-05-10T22:42:47.971Z,89.94
2023-05-10T22:45:14.407Z,89.66
2023-05-10T22:47:41.081Z,89.80
2023-05-10T22:50:08.709Z,89.62
2023-05-10T22:52:35.356Z,89.74
2023-05-10T22:55:01.931Z,89.77
2023-05-10T22:57:28.465Z,89.77
2023-05-10T22:59:54.896Z,89.84
2023-05-10T23:02:21.404Z,89.87
2023-05-10T23:04:48.115Z,89.87
2023-05-10T23:07:14.584Z,90.02
2023-05-10T23:09:41.120Z,89.81
2023-05-10T23:12:07.689Z,90.11
2023-05-10T23:14:34.171Z,90.09
2023-05-10T23:17:00.793Z,90.33
2023-05-10T23:19:27.664Z,90.36
2023-05-10T23:21:54.111Z,90.18
2023-05-10T23:24:20.604Z,90.29
2023-05-10T23:26:47.298Z,90.54
2023-05-10T23:29:13.904Z,90.33
2023-05-10T23:31:45.272Z,90.29
2023-05-10T23:34:12.467Z,89.50
2023-05-10T23:36:39.305Z,89.94
2023-05-10T23:39:06.540Z,90.12
2023-05-10T23:41:33.000Z,90.30
2023-05-10T23:44:01.396Z,90.32
2023-05-10T23:46:28.161Z,90.14
2023-05-10T23:48:54.610Z,90.33
2023-05-10T23:51:21.138Z,90.35
2023-05-10T23:53:48.820Z,90.46
2023-05-10T23:56:15.307Z,90.39
2023-05-10T23:58:42.594Z,90.13
